sensor_id;sensor_type;location;lat;lon;timestamp;P1;durP1;ratioP1;P2;durP2;ratioP2
17201;SDS011;8717;53.588;10.176;2022-08-03T00:02:01;4.60;;;2.95;;
17201;SDS011;8717;53.588;10.176;2022-08-03T00:04:28;5.35;;;2.95;;
17201;SDS011;8717;53.588;10.176;2022-08-03T00:06:54;3.97;;;3.53;;
17201;SDS011;8717;53.588;10.176;2022-08-03T00:09:21;4.13;;;3.03;;
17201;SDS011;8717;53.588;10.176;2022-08-03T00:11:48;5.40;;;3.10;;
17201;SDS011;8717;53.588;10.176;2022-08-03T00:14:14;4.15;;;2.90;;
17201;SDS011;8717;53.588;10.176;2022-08-03T00:16:41;3.50;;;2.83;;
17201;SDS011;8717;53.588;10.176;2022-08-03T00:19:09;3.92;;;3.20;;
17201;SDS011;8717;53.588;10.176;2022-08-03T00:21:36;4.05;;;3.20;;
17201;SDS011;8717;53.588;10.176;2022-08-03T00:24:03;3.40;;;3.00;;
17201;SDS011;8717;53.588;10.176;2022-08-03T00:26:30;3.53;;;2.80;;
17201;SDS011;8717;53.588;10.176;2022-08-03T00:28:57;3.90;;;3.00;;
17201;SDS011;8717;53.588;10.176;2022-08-03T00:31:23;3.28;;;2.97;;
17201;SDS011;8717;53.588;10.176;2022-08-03T00:33:50;5.05;;;3.20;;
17201;SDS011;8717;53.588;10.176;2022-08-03T00:36:18;3.75;;;3.28;;
17201;SDS011;8717;53.588;10.176;2022-08-03T00:38:45;5.63;;;3.22;;
17201;SDS011;8717;53.588;10.176;2022-08-03T00:41:11;5.03;;;3.30;;
17201;SDS011;8717;53.588;10.176;2022-08-03T00:43:38;3.30;;;3.00;;
17201;SDS011;8717;53.588;10.176;2022-08-03T00:46:05;4.07;;;3.20;;
17201;SDS011;8717;53.588;10.176;2022-08-03T00:48:31;4.10;;;3.22;;
17201;SDS011;8717;53.588;10.176;2022-08-03T00:50:58;3.38;;;3.00;;
17201;SDS011;8717;53.588;10.176;2022-08-03T00:53:26;3.63;;;3.05;;
17201;SDS011;8717;53.588;10.176;2022-08-03T00:55:53;4.05;;;3.45;;
17201;SDS011;8717;53.588;10.176;2022-08-03T00:58:20;5.00;;;3.65;;
17201;SDS011;8717;53.588;10.176;2022-08-03T01:00:48;4.50;;;3.55;;
17201;SDS011;8717;53.588;10.176;2022-08-03T01:03:15;4.10;;;3.70;;
17201;SDS011;8717;53.588;10.176;2022-08-03T01:05:44;4.57;;;3.45;;
17201;SDS011;8717;53.588;10.176;2022-08-03T01:08:18;4.30;;;3.45;;
17201;SDS011;8717;53.588;10.176;2022-08-03T01:10:53;4.75;;;3.30;;
17201;SDS011;8717;53.588;10.176;2022-08-03T01:13:26;5.30;;;3.13;;
17201;SDS011;8717;53.588;10.176;2022-08-03T01:15:58;3.30;;;3.00;;
17201;SDS011;8717;53.588;10.176;2022-08-03T01:18:30;3.58;;;3.28;;
17201;SDS011;8717;53.588;10.176;2022-08-03T01:21:03;3.33;;;2.85;;
17201;SDS011;8717;53.588;10.176;2022-08-03T01:23:36;4.25;;;3.22;;
17201;SDS011;8717;53.588;10.176;2022-08-03T01:26:31;4.32;;;3.67;;
17201;SDS011;8717;53.588;10.176;2022-08-03T01:32:24;4.38;;;3.80;;
17201;SDS011;8717;53.588;10.176;2022-08-03T01:34:58;4.60;;;3.15;;
17201;SDS011;8717;53.588;10.176;2022-08-03T01:37:31;5.10;;;3.60;;
17201;SDS011;8717;53.588;10.176;2022-08-03T01:40:03;4.35;;;3.50;;
17201;SDS011;8717;53.588;10.176;2022-08-03T01:42:31;4.53;;;4.03;;
17201;SDS011;8717;53.588;10.176;2022-08-03T01:45:01;3.78;;;3.40;;
17201;SDS011;8717;53.588;10.176;2022-08-03T01:47:29;3.72;;;3.22;;
17201;SDS011;8717;53.588;10.176;2022-08-03T01:49:56;4.70;;;3.55;;
17201;SDS011;8717;53.588;10.176;2022-08-03T01:52:25;6.47;;;3.60;;
17201;SDS011;8717;53.588;10.176;2022-08-03T01:54:53;5.20;;;4.10;;
17201;SDS011;8717;53.588;10.176;2022-08-03T01:57:21;4.47;;;3.22;;
17201;SDS011;8717;53.588;10.176;2022-08-03T01:59:50;4.32;;;3.40;;
17201;SDS011;8717;53.588;10.176;2022-08-03T02:02:20;4.60;;;3.70;;
17201;SDS011;8717;53.588;10.176;2022-08-03T02:04:47;3.90;;;3.50;;
17201;SDS011;8717;53.588;10.176;2022-08-03T02:07:15;4.47;;;3.63;;
17201;SDS011;8717;53.588;10.176;2022-08-03T02:09:43;4.10;;;3.63;;
17201;SDS011;8717;53.588;10.176;2022-08-03T02:12:14;4.30;;;3.70;;
17201;SDS011;8717;53.588;10.176;2022-08-03T02:14:43;4.25;;;3.85;;
17201;SDS011;8717;53.588;10.176;2022-08-03T02:17:11;3.80;;;3.50;;
17201;SDS011;8717;53.588;10.176;2022-08-03T02:19:42;4.25;;;3.85;;
17201;SDS011;8717;53.588;10.176;2022-08-03T02:22:11;4.13;;;3.67;;
17201;SDS011;8717;53.588;10.176;2022-08-03T02:24:38;5.93;;;4.10;;
17201;SDS011;8717;53.588;10.176;2022-08-03T02:27:13;6.20;;;4.00;;
17201;SDS011;8717;53.588;10.176;2022-08-03T02:29:45;5.57;;;3.92;;
17201;SDS011;8717;53.588;10.176;2022-08-03T02:32:19;5.30;;;4.25;;
17201;SDS011;8717;53.588;10.176;2022-08-03T02:34:50;4.28;;;3.78;;
17201;SDS011;8717;53.588;10.176;2022-08-03T02:37:19;4.68;;;4.00;;
17201;SDS011;8717;53.588;10.176;2022-08-03T02:39:50;4.38;;;3.85;;
17201;SDS011;8717;53.588;10.176;2022-08-03T02:42:22;5.63;;;4.18;;
17201;SDS011;8717;53.588;10.176;2022-08-03T02:44:52;4.10;;;3.70;;
17201;SDS011;8717;53.588;10.176;2022-08-03T02:47:21;5.22;;;3.88;;
17201;SDS011;8717;53.588;10.176;2022-08-03T02:49:52;4.15;;;3.75;;
17201;SDS011;8717;53.588;10.176;2022-08-03T02:52:22;4.45;;;3.80;;
17201;SDS011;8717;53.588;10.176;2022-08-03T02:54:52;4.18;;;3.78;;
17201;SDS011;8717;53.588;10.176;2022-08-03T02:57:21;4.47;;;4.07;;
17201;SDS011;8717;53.588;10.176;2022-08-03T02:59:50;4.40;;;4.00;;
17201;SDS011;8717;53.588;10.176;2022-08-03T03:02:17;4.35;;;3.95;;
17201;SDS011;8717;53.588;10.176;2022-08-03T03:04:45;4.47;;;4.07;;
17201;SDS011;8717;53.588;10.176;2022-08-03T03:07:16;4.60;;;4.20;;
17201;SDS011;8717;53.588;10.176;2022-08-03T03:09:43;4.38;;;3.63;;
17201;SDS011;8717;53.588;10.176;2022-08-03T03:12:11;5.67;;;3.73;;
17201;SDS011;8717;53.588;10.176;2022-08-03T03:14:39;4.47;;;3.92;;
17201;SDS011;8717;53.588;10.176;2022-08-03T03:17:06;5.00;;;4.20;;
17201;SDS011;8717;53.588;10.176;2022-08-03T03:19:35;5.68;;;4.10;;
17201;SDS011;8717;53.588;10.176;2022-08-03T03:22:03;4.45;;;4.05;;
17201;SDS011;8717;53.588;10.176;2022-08-03T03:24:34;4.75;;;4.25;;
17201;SDS011;8717;53.588;10.176;2022-08-03T03:27:01;4.55;;;4.15;;
17201;SDS011;8717;53.588;10.176;2022-08-03T03:29:29;4.80;;;4.30;;
17201;SDS011;8717;53.588;10.176;2022-08-03T03:31:57;4.25;;;3.85;;
17201;SDS011;8717;53.588;10.176;2022-08-03T03:34:23;4.80;;;4.30;;
17201;SDS011;8717;53.588;10.176;2022-08-03T03:36:51;5.47;;;4.32;;
17201;SDS011;8717;53.588;10.176;2022-08-03T03:39:17;7.77;;;4.40;;
17201;SDS011;8717;53.588;10.176;2022-08-03T03:41:45;5.30;;;4.82;;
17201;SDS011;8717;53.588;10.176;2022-08-03T03:44:12;4.73;;;4.33;;
17201;SDS011;8717;53.588;10.176;2022-08-03T03:46:39;7.35;;;4.72;;
17201;SDS011;8717;53.588;10.176;2022-08-03T03:49:06;5.10;;;4.60;;
17201;SDS011;8717;53.588;10.176;2022-08-03T03:51:33;5.50;;;4.60;;
17201;SDS011;8717;53.588;10.176;2022-08-03T03:54:00;5.25;;;4.38;;
17201;SDS011;8717;53.588;10.176;2022-08-03T03:56:28;4.80;;;4.37;;
17201;SDS011;8717;53.588;10.176;2022-08-03T03:58:56;4.90;;;4.50;;
17201;SDS011;8717;53.588;10.176;2022-08-03T04:01:23;6.37;;;4.53;;
17201;SDS011;8717;53.588;10.176;2022-08-03T04:03:50;5.43;;;4.93;;
17201;SDS011;8717;53.588;10.176;2022-08-03T04:06:16;5.00;;;4.50;;
17201;SDS011;8717;53.588;10.176;2022-08-03T04:09:01;5.05;;;4.50;;
17201;SDS011;8717;53.588;10.176;2022-08-03T04:11:46;5.37;;;4.97;;
17201;SDS011;8717;53.588;10.176;2022-08-03T04:14:18;5.57;;;4.60;;
17201;SDS011;8717;53.588;10.176;2022-08-03T04:16:48;5.30;;;4.80;;
17201;SDS011;8717;53.588;10.176;2022-08-03T04:19:17;4.97;;;4.57;;
17201;SDS011;8717;53.588;10.176;2022-08-03T04:21:53;4.90;;;4.33;;
17201;SDS011;8717;53.588;10.176;2022-08-03T04:24:22;4.88;;;4.38;;
17201;SDS011;8717;53.588;10.176;2022-08-03T04:26:52;5.20;;;4.45;;
17201;SDS011;8717;53.588;10.176;2022-08-03T04:29:21;4.47;;;4.07;;
17201;SDS011;8717;53.588;10.176;2022-08-03T04:31:52;5.68;;;4.68;;
17201;SDS011;8717;53.588;10.176;2022-08-03T04:34:20;5.53;;;4.78;;
17201;SDS011;8717;53.588;10.176;2022-08-03T04:36:48;5.88;;;4.40;;
17201;SDS011;8717;53.588;10.176;2022-08-03T04:39:22;5.35;;;4.68;;
17201;SDS011;8717;53.588;10.176;2022-08-03T04:41:51;5.72;;;4.82;;
17201;SDS011;8717;53.588;10.176;2022-08-03T04:44:19;5.00;;;4.43;;
17201;SDS011;8717;53.588;10.176;2022-08-03T04:46:49;5.40;;;4.90;;
17201;SDS011;8717;53.588;10.176;2022-08-03T04:49:17;6.90;;;4.93;;
17201;SDS011;8717;53.588;10.176;2022-08-03T04:51:46;5.70;;;4.60;;
17201;SDS011;8717;53.588;10.176;2022-08-03T04:54:14;6.35;;;5.10;;
17201;SDS011;8717;53.588;10.176;2022-08-03T04:56:42;5.93;;;4.68;;
17201;SDS011;8717;53.588;10.176;2022-08-03T04:59:09;5.88;;;4.63;;
17201;SDS011;8717;53.588;10.176;2022-08-03T05:01:38;6.05;;;4.70;;
17201;SDS011;8717;53.588;10.176;2022-08-03T05:04:05;5.57;;;4.38;;
17201;SDS011;8717;53.588;10.176;2022-08-03T05:06:31;5.72;;;4.72;;
17201;SDS011;8717;53.588;10.176;2022-08-03T05:08:58;4.68;;;4.25;;
17201;SDS011;8717;53.588;10.176;2022-08-03T05:11:25;4.85;;;4.43;;
17201;SDS011;8717;53.588;10.176;2022-08-03T05:13:52;6.95;;;4.88;;
17201;SDS011;8717;53.588;10.176;2022-08-03T05:16:18;5.07;;;4.50;;
17201;SDS011;8717;53.588;10.176;2022-08-03T05:18:46;7.60;;;5.22;;
17201;SDS011;8717;53.588;10.176;2022-08-03T05:21:13;5.30;;;4.80;;
17201;SDS011;8717;53.588;10.176;2022-08-03T05:23:41;5.15;;;4.65;;
17201;SDS011;8717;53.588;10.176;2022-08-03T05:26:08;5.68;;;4.63;;
17201;SDS011;8717;53.588;10.176;2022-08-03T05:28:35;6.55;;;4.38;;
17201;SDS011;8717;53.588;10.176;2022-08-03T05:31:02;5.50;;;5.00;;
17201;SDS011;8717;53.588;10.176;2022-08-03T05:33:29;5.70;;;4.70;;
17201;SDS011;8717;53.588;10.176;2022-08-03T05:35:57;5.03;;;4.38;;
17201;SDS011;8717;53.588;10.176;2022-08-03T05:38:25;4.93;;;4.53;;
17201;SDS011;8717;53.588;10.176;2022-08-03T05:40:52;5.15;;;4.18;;
17201;SDS011;8717;53.588;10.176;2022-08-03T05:43:18;5.78;;;4.57;;
17201;SDS011;8717;53.588;10.176;2022-08-03T05:45:45;6.72;;;4.55;;
17201;SDS011;8717;53.588;10.176;2022-08-03T05:48:12;5.50;;;4.45;;
17201;SDS011;8717;53.588;10.176;2022-08-03T05:50:39;4.90;;;4.30;;
17201;SDS011;8717;53.588;10.176;2022-08-03T05:53:07;6.00;;;4.45;;
17201;SDS011;8717;53.588;10.176;2022-08-03T05:55:34;5.30;;;4.60;;
17201;SDS011;8717;53.588;10.176;2022-08-03T05:58:01;5.13;;;4.05;;
17201;SDS011;8717;53.588;10.176;2022-08-03T06:00:28;4.47;;;4.10;;
17201;SDS011;8717;53.588;10.176;2022-08-03T06:02:54;5.72;;;4.28;;
17201;SDS011;8717;53.588;10.176;2022-08-03T06:05:21;4.78;;;4.30;;
17201;SDS011;8717;53.588;10.176;2022-08-03T06:07:48;4.18;;;3.78;;
17201;SDS011;8717;53.588;10.176;2022-08-03T06:10:16;6.05;;;3.58;;
17201;SDS011;8717;53.588;10.176;2022-08-03T06:12:43;4.82;;;4.13;;
17201;SDS011;8717;53.588;10.176;2022-08-03T06:15:11;6.50;;;3.92;;
17201;SDS011;8717;53.588;10.176;2022-08-03T06:17:44;5.07;;;3.90;;
17201;SDS011;8717;53.588;10.176;2022-08-03T06:20:12;4.38;;;3.50;;
17201;SDS011;8717;53.588;10.176;2022-08-03T06:22:40;6.38;;;3.80;;
17201;SDS011;8717;53.588;10.176;2022-08-03T06:25:07;4.57;;;3.33;;
17201;SDS011;8717;53.588;10.176;2022-08-03T06:27:36;4.30;;;3.72;;
17201;SDS011;8717;53.588;10.176;2022-08-03T06:30:04;3.78;;;3.30;;
17201;SDS011;8717;53.588;10.176;2022-08-03T06:32:32;4.20;;;3.58;;
17201;SDS011;8717;53.588;10.176;2022-08-03T06:34:59;4.78;;;3.40;;
17201;SDS011;8717;53.588;10.176;2022-08-03T06:37:26;5.65;;;3.50;;
17201;SDS011;8717;53.588;10.176;2022-08-03T06:39:53;4.85;;;3.17;;
17201;SDS011;8717;53.588;10.176;2022-08-03T06:42:20;3.72;;;3.40;;
17201;SDS011;8717;53.588;10.176;2022-08-03T06:44:48;4.40;;;3.70;;
17201;SDS011;8717;53.588;10.176;2022-08-03T06:47:15;4.80;;;3.42;;
17201;SDS011;8717;53.588;10.176;2022-08-03T06:49:42;3.50;;;3.20;;
17201;SDS011;8717;53.588;10.176;2022-08-03T06:52:08;3.45;;;3.10;;
17201;SDS011;8717;53.588;10.176;2022-08-03T06:54:35;3.83;;;3.42;;
17201;SDS011;8717;53.588;10.176;2022-08-03T06:57:02;3.58;;;3.25;;
17201;SDS011;8717;53.588;10.176;2022-08-03T06:59:30;4.35;;;3.55;;
17201;SDS011;8717;53.588;10.176;2022-08-03T07:01:58;3.28;;;3.05;;
17201;SDS011;8717;53.588;10.176;2022-08-03T07:04:25;3.80;;;3.30;;
17201;SDS011;8717;53.588;10.176;2022-08-03T07:06:51;3.85;;;3.00;;
17201;SDS011;8717;53.588;10.176;2022-08-03T07:09:19;5.00;;;3.05;;
17201;SDS011;8717;53.588;10.176;2022-08-03T07:11:46;5.40;;;3.10;;
17201;SDS011;8717;53.588;10.176;2022-08-03T07:14:13;5.07;;;3.40;;
17201;SDS011;8717;53.588;10.176;2022-08-03T07:16:39;3.40;;;3.10;;
17201;SDS011;8717;53.588;10.176;2022-08-03T07:19:07;3.80;;;2.70;;
17201;SDS011;8717;53.588;10.176;2022-08-03T07:21:34;3.22;;;2.88;;
17201;SDS011;8717;53.588;10.176;2022-08-03T07:24:01;3.60;;;2.90;;
17201;SDS011;8717;53.588;10.176;2022-08-03T07:26:28;4.82;;;3.10;;
17201;SDS011;8717;53.588;10.176;2022-08-03T07:28:55;6.70;;;2.92;;
17201;SDS011;8717;53.588;10.176;2022-08-03T07:31:21;7.07;;;2.60;;
17201;SDS011;8717;53.588;10.176;2022-08-03T07:33:48;4.78;;;2.60;;
17201;SDS011;8717;53.588;10.176;2022-08-03T07:36:16;3.88;;;2.75;;
17201;SDS011;8717;53.588;10.176;2022-08-03T07:38:43;8.35;;;2.95;;
17201;SDS011;8717;53.588;10.176;2022-08-03T07:41:10;3.45;;;2.67;;
17201;SDS011;8717;53.588;10.176;2022-08-03T07:43:36;5.53;;;2.95;;
17201;SDS011;8717;53.588;10.176;2022-08-03T07:46:03;3.58;;;2.53;;
17201;SDS011;8717;53.588;10.176;2022-08-03T07:48:30;3.75;;;2.70;;
17201;SDS011;8717;53.588;10.176;2022-08-03T07:50:57;5.03;;;2.83;;
17201;SDS011;8717;53.588;10.176;2022-08-03T07:53:25;6.07;;;2.15;;
17201;SDS011;8717;53.588;10.176;2022-08-03T07:55:51;2.65;;;2.20;;
17201;SDS011;8717;53.588;10.176;2022-08-03T07:58:18;4.07;;;2.30;;
17201;SDS011;8717;53.588;10.176;2022-08-03T08:00:46;3.10;;;2.28;;
17201;SDS011;8717;53.588;10.176;2022-08-03T08:03:15;2.45;;;2.25;;
17201;SDS011;8717;53.588;10.176;2022-08-03T08:05:41;3.13;;;2.20;;
17201;SDS011;8717;53.588;10.176;2022-08-03T08:08:08;3.58;;;2.60;;
17201;SDS011;8717;53.588;10.176;2022-08-03T08:10:36;3.15;;;2.47;;
17201;SDS011;8717;53.588;10.176;2022-08-03T08:13:03;3.10;;;2.80;;
17201;SDS011;8717;53.588;10.176;2022-08-03T08:15:30;7.72;;;2.45;;
17201;SDS011;8717;53.588;10.176;2022-08-03T08:17:57;4.82;;;2.83;;
17201;SDS011;8717;53.588;10.176;2022-08-03T08:20:26;3.45;;;2.50;;
17201;SDS011;8717;53.588;10.176;2022-08-03T08:22:53;2.60;;;2.03;;
17201;SDS011;8717;53.588;10.176;2022-08-03T08:25:20;4.63;;;2.08;;
17201;SDS011;8717;53.588;10.176;2022-08-03T08:27:48;3.08;;;1.80;;
17201;SDS011;8717;53.588;10.176;2022-08-03T08:30:17;3.38;;;1.80;;
17201;SDS011;8717;53.588;10.176;2022-08-03T08:32:48;2.10;;;1.70;;
17201;SDS011;8717;53.588;10.176;2022-08-03T08:35:16;3.85;;;1.95;;
17201;SDS011;8717;53.588;10.176;2022-08-03T08:37:44;4.05;;;1.80;;
17201;SDS011;8717;53.588;10.176;2022-08-03T08:40:11;4.15;;;1.77;;
17201;SDS011;8717;53.588;10.176;2022-08-03T08:42:39;4.47;;;1.92;;
17201;SDS011;8717;53.588;10.176;2022-08-03T08:45:08;3.50;;;1.88;;
17201;SDS011;8717;53.588;10.176;2022-08-03T08:47:36;5.10;;;2.00;;
17201;SDS011;8717;53.588;10.176;2022-08-03T08:50:05;3.80;;;2.00;;
17201;SDS011;8717;53.588;10.176;2022-08-03T08:52:33;2.88;;;1.92;;
17201;SDS011;8717;53.588;10.176;2022-08-03T08:55:03;4.30;;;2.08;;
17201;SDS011;8717;53.588;10.176;2022-08-03T08:57:33;3.95;;;2.17;;
17201;SDS011;8717;53.588;10.176;2022-08-03T09:00:03;3.05;;;1.92;;
17201;SDS011;8717;53.588;10.176;2022-08-03T09:02:34;4.72;;;2.05;;
17201;SDS011;8717;53.588;10.176;2022-08-03T09:05:01;2.83;;;1.77;;
17201;SDS011;8717;53.588;10.176;2022-08-03T09:07:29;3.65;;;1.70;;
17201;SDS011;8717;53.588;10.176;2022-08-03T09:09:55;7.03;;;1.85;;
17201;SDS011;8717;53.588;10.176;2022-08-03T09:12:22;5.63;;;1.90;;
17201;SDS011;8717;53.588;10.176;2022-08-03T09:14:49;2.45;;;1.63;;
17201;SDS011;8717;53.588;10.176;2022-08-03T09:17:15;1.98;;;1.65;;
17201;SDS011;8717;53.588;10.176;2022-08-03T09:19:46;4.72;;;1.63;;
17201;SDS011;8717;53.588;10.176;2022-08-03T09:22:31;2.55;;;1.60;;
17201;SDS011;8717;53.588;10.176;2022-08-03T09:25:00;4.20;;;1.48;;
17201;SDS011;8717;53.588;10.176;2022-08-03T09:27:29;3.42;;;1.65;;
17201;SDS011;8717;53.588;10.176;2022-08-03T09:30:11;4.35;;;1.80;;
17201;SDS011;8717;53.588;10.176;2022-08-03T09:32:39;4.53;;;1.58;;
17201;SDS011;8717;53.588;10.176;2022-08-03T09:35:07;2.63;;;1.85;;
17201;SDS011;8717;53.588;10.176;2022-08-03T09:37:35;3.75;;;1.52;;
17201;SDS011;8717;53.588;10.176;2022-08-03T09:40:02;4.10;;;1.60;;
17201;SDS011;8717;53.588;10.176;2022-08-03T09:42:30;2.70;;;1.20;;
17201;SDS011;8717;53.588;10.176;2022-08-03T09:44:59;4.72;;;1.85;;
17201;SDS011;8717;53.588;10.176;2022-08-03T09:47:26;4.60;;;1.55;;
17201;SDS011;8717;53.588;10.176;2022-08-03T09:49:55;2.92;;;1.60;;
17201;SDS011;8717;53.588;10.176;2022-08-03T09:52:30;5.97;;;2.03;;
17201;SDS011;8717;53.588;10.176;2022-08-03T09:54:58;3.45;;;1.80;;
17201;SDS011;8717;53.588;10.176;2022-08-03T09:57:25;5.53;;;1.52;;
17201;SDS011;8717;53.588;10.176;2022-08-03T10:00:02;4.50;;;1.63;;
17201;SDS011;8717;53.588;10.176;2022-08-03T10:02:40;2.97;;;1.40;;
17201;SDS011;8717;53.588;10.176;2022-08-03T10:05:09;5.55;;;1.80;;
17201;SDS011;8717;53.588;10.176;2022-08-03T10:07:44;4.43;;;2.20;;
17201;SDS011;8717;53.588;10.176;2022-08-03T10:10:13;2.50;;;1.65;;
17201;SDS011;8717;53.588;10.176;2022-08-03T10:12:41;2.38;;;1.40;;
17201;SDS011;8717;53.588;10.176;2022-08-03T10:15:09;3.17;;;2.03;;
17201;SDS011;8717;53.588;10.176;2022-08-03T10:17:36;1.95;;;1.60;;
17201;SDS011;8717;53.588;10.176;2022-08-03T10:20:04;4.70;;;1.50;;
17201;SDS011;8717;53.588;10.176;2022-08-03T10:22:33;4.82;;;1.80;;
17201;SDS011;8717;53.588;10.176;2022-08-03T10:25:03;4.25;;;1.60;;
17201;SDS011;8717;53.588;10.176;2022-08-03T10:27:33;5.55;;;1.88;;
17201;SDS011;8717;53.588;10.176;2022-08-03T10:30:03;5.15;;;1.67;;
17201;SDS011;8717;53.588;10.176;2022-08-03T10:32:33;5.38;;;1.73;;
17201;SDS011;8717;53.588;10.176;2022-08-03T10:35:04;4.40;;;1.65;;
17201;SDS011;8717;53.588;10.176;2022-08-03T10:37:37;3.75;;;1.60;;
17201;SDS011;8717;53.588;10.176;2022-08-03T10:40:09;7.07;;;2.00;;
17201;SDS011;8717;53.588;10.176;2022-08-03T10:42:39;4.88;;;1.60;;
17201;SDS011;8717;53.588;10.176;2022-08-03T10:45:08;3.83;;;1.60;;
17201;SDS011;8717;53.588;10.176;2022-08-03T10:47:40;5.05;;;1.67;;
17201;SDS011;8717;53.588;10.176;2022-08-03T10:50:07;2.80;;;1.92;;
17201;SDS011;8717;53.588;10.176;2022-08-03T10:52:35;3.40;;;1.50;;
17201;SDS011;8717;53.588;10.176;2022-08-03T10:55:29;3.47;;;1.48;;
17201;SDS011;8717;53.588;10.176;2022-08-03T10:58:15;3.05;;;1.58;;
17201;SDS011;8717;53.588;10.176;2022-08-03T11:01:16;4.10;;;1.52;;
17201;SDS011;8717;53.588;10.176;2022-08-03T11:06:42;4.40;;;1.73;;
17201;SDS011;8717;53.588;10.176;2022-08-03T11:09:13;3.67;;;1.60;;
17201;SDS011;8717;53.588;10.176;2022-08-03T11:11:42;3.88;;;1.63;;
17201;SDS011;8717;53.588;10.176;2022-08-03T11:14:12;4.45;;;1.55;;
17201;SDS011;8717;53.588;10.176;2022-08-03T11:16:41;3.65;;;1.45;;
17201;SDS011;8717;53.588;10.176;2022-08-03T11:19:11;8.20;;;1.83;;
17201;SDS011;8717;53.588;10.176;2022-08-03T11:21:53;4.97;;;1.73;;
17201;SDS011;8717;53.588;10.176;2022-08-03T11:27:22;4.47;;;2.03;;
17201;SDS011;8717;53.588;10.176;2022-08-03T11:29:54;3.33;;;1.50;;
17201;SDS011;8717;53.588;10.176;2022-08-03T11:35:17;2.95;;;1.80;;
17201;SDS011;8717;53.588;10.176;2022-08-03T11:40:33;4.10;;;1.73;;
17201;SDS011;8717;53.588;10.176;2022-08-03T11:43:01;4.78;;;1.70;;
17201;SDS011;8717;53.588;10.176;2022-08-03T11:45:29;3.40;;;1.50;;
17201;SDS011;8717;53.588;10.176;2022-08-03T11:47:56;3.97;;;1.73;;
17201;SDS011;8717;53.588;10.176;2022-08-03T11:50:34;3.92;;;1.75;;
17201;SDS011;8717;53.588;10.176;2022-08-03T11:53:01;1.60;;;1.50;;
17201;SDS011;8717;53.588;10.176;2022-08-03T11:55:29;4.03;;;1.70;;
17201;SDS011;8717;53.588;10.176;2022-08-03T11:57:57;2.75;;;1.75;;
17201;SDS011;8717;53.588;10.176;2022-08-03T12:00:25;2.67;;;1.85;;
17201;SDS011;8717;53.588;10.176;2022-08-03T12:02:59;5.03;;;1.70;;
17201;SDS011;8717;53.588;10.176;2022-08-03T12:05:34;2.70;;;1.83;;
17201;SDS011;8717;53.588;10.176;2022-08-03T12:08:06;4.82;;;1.67;;
17201;SDS011;8717;53.588;10.176;2022-08-03T12:10:35;2.80;;;1.55;;
17201;SDS011;8717;53.588;10.176;2022-08-03T12:13:03;1.90;;;1.40;;
17201;SDS011;8717;53.588;10.176;2022-08-03T12:15:33;3.95;;;1.60;;
17201;SDS011;8717;53.588;10.176;2022-08-03T12:18:02;3.65;;;1.40;;
17201;SDS011;8717;53.588;10.176;2022-08-03T12:20:39;2.92;;;1.40;;
17201;SDS011;8717;53.588;10.176;2022-08-03T12:23:06;2.15;;;1.60;;
17201;SDS011;8717;53.588;10.176;2022-08-03T12:25:34;4.43;;;1.75;;
17201;SDS011;8717;53.588;10.176;2022-08-03T12:28:06;3.08;;;1.58;;
17201;SDS011;8717;53.588;10.176;2022-08-03T12:30:34;4.38;;;1.88;;
17201;SDS011;8717;53.588;10.176;2022-08-03T12:33:11;5.70;;;2.42;;
17201;SDS011;8717;53.588;10.176;2022-08-03T12:35:45;3.63;;;1.80;;
17201;SDS011;8717;53.588;10.176;2022-08-03T12:38:12;4.60;;;1.60;;
17201;SDS011;8717;53.588;10.176;2022-08-03T12:40:44;2.28;;;1.50;;
17201;SDS011;8717;53.588;10.176;2022-08-03T12:43:19;4.18;;;1.77;;
17201;SDS011;8717;53.588;10.176;2022-08-03T12:45:46;3.40;;;1.50;;
17201;SDS011;8717;53.588;10.176;2022-08-03T12:48:14;4.28;;;1.58;;
17201;SDS011;8717;53.588;10.176;2022-08-03T12:50:41;4.05;;;1.35;;
17201;SDS011;8717;53.588;10.176;2022-08-03T12:53:08;3.67;;;1.55;;
17201;SDS011;8717;53.588;10.176;2022-08-03T12:55:36;5.22;;;1.67;;
17201;SDS011;8717;53.588;10.176;2022-08-03T12:58:04;3.60;;;1.48;;
17201;SDS011;8717;53.588;10.176;2022-08-03T13:00:34;3.25;;;1.58;;
17201;SDS011;8717;53.588;10.176;2022-08-03T13:03:04;3.35;;;2.10;;
17201;SDS011;8717;53.588;10.176;2022-08-03T13:05:42;2.90;;;1.40;;
17201;SDS011;8717;53.588;10.176;2022-08-03T13:08:16;3.45;;;1.52;;
17201;SDS011;8717;53.588;10.176;2022-08-03T13:10:44;6.28;;;1.60;;
17201;SDS011;8717;53.588;10.176;2022-08-03T13:13:11;4.53;;;1.40;;
17201;SDS011;8717;53.588;10.176;2022-08-03T13:15:37;3.08;;;1.60;;
17201;SDS011;8717;53.588;10.176;2022-08-03T13:18:04;3.83;;;1.73;;
17201;SDS011;8717;53.588;10.176;2022-08-03T13:20:31;4.95;;;1.48;;
17201;SDS011;8717;53.588;10.176;2022-08-03T13:22:59;2.75;;;1.83;;
17201;SDS011;8717;53.588;10.176;2022-08-03T13:25:26;3.00;;;1.52;;
17201;SDS011;8717;53.588;10.176;2022-08-03T13:27:53;2.20;;;1.30;;
17201;SDS011;8717;53.588;10.176;2022-08-03T13:30:20;2.83;;;1.65;;
17201;SDS011;8717;53.588;10.176;2022-08-03T13:32:46;3.15;;;1.70;;
17201;SDS011;8717;53.588;10.176;2022-08-03T13:35:13;2.80;;;1.50;;
17201;SDS011;8717;53.588;10.176;2022-08-03T13:37:40;4.72;;;1.65;;
17201;SDS011;8717;53.588;10.176;2022-08-03T13:40:08;6.50;;;1.70;;
17201;SDS011;8717;53.588;10.176;2022-08-03T13:42:35;4.72;;;1.73;;
17201;SDS011;8717;53.588;10.176;2022-08-03T13:45:02;3.65;;;1.38;;
17201;SDS011;8717;53.588;10.176;2022-08-03T13:47:30;3.33;;;1.90;;
17201;SDS011;8717;53.588;10.176;2022-08-03T13:49:57;2.45;;;1.30;;
17201;SDS011;8717;53.588;10.176;2022-08-03T13:52:24;5.07;;;2.15;;
17201;SDS011;8717;53.588;10.176;2022-08-03T13:54:50;4.55;;;1.63;;
17201;SDS011;8717;53.588;10.176;2022-08-03T13:57:18;3.65;;;1.60;;
17201;SDS011;8717;53.588;10.176;2022-08-03T13:59:45;2.92;;;1.70;;
17201;SDS011;8717;53.588;10.176;2022-08-03T14:02:13;4.78;;;1.42;;
17201;SDS011;8717;53.588;10.176;2022-08-03T14:04:40;3.05;;;1.55;;
17201;SDS011;8717;53.588;10.176;2022-08-03T14:07:07;2.65;;;1.50;;
17201;SDS011;8717;53.588;10.176;2022-08-03T14:09:33;5.65;;;1.70;;
17201;SDS011;8717;53.588;10.176;2022-08-03T14:12:00;3.55;;;1.48;;
17201;SDS011;8717;53.588;10.176;2022-08-03T14:14:28;2.38;;;1.50;;
17201;SDS011;8717;53.588;10.176;2022-08-03T14:16:55;4.13;;;1.45;;
17201;SDS011;8717;53.588;10.176;2022-08-03T14:19:21;3.47;;;1.60;;
17201;SDS011;8717;53.588;10.176;2022-08-03T14:21:48;4.00;;;1.70;;
17201;SDS011;8717;53.588;10.176;2022-08-03T14:24:15;2.03;;;1.40;;
17201;SDS011;8717;53.588;10.176;2022-08-03T14:26:41;3.90;;;1.50;;
17201;SDS011;8717;53.588;10.176;2022-08-03T14:29:08;3.13;;;1.55;;
17201;SDS011;8717;53.588;10.176;2022-08-03T14:31:36;2.42;;;1.65;;
17201;SDS011;8717;53.588;10.176;2022-08-03T14:34:03;5.30;;;1.67;;
17201;SDS011;8717;53.588;10.176;2022-08-03T14:36:30;4.50;;;1.80;;
17201;SDS011;8717;53.588;10.176;2022-08-03T14:38:57;2.10;;;1.42;;
17201;SDS011;8717;53.588;10.176;2022-08-03T14:41:24;3.20;;;1.70;;
17201;SDS011;8717;53.588;10.176;2022-08-03T14:43:50;4.95;;;2.10;;
17201;SDS011;8717;53.588;10.176;2022-08-03T14:46:17;5.43;;;1.60;;
17201;SDS011;8717;53.588;10.176;2022-08-03T14:48:45;2.72;;;1.40;;
17201;SDS011;8717;53.588;10.176;2022-08-03T14:51:12;5.22;;;1.80;;
17201;SDS011;8717;53.588;10.176;2022-08-03T14:53:39;5.03;;;1.85;;
17201;SDS011;8717;53.588;10.176;2022-08-03T14:56:05;3.63;;;1.58;;
17201;SDS011;8717;53.588;10.176;2022-08-03T14:58:32;4.95;;;1.80;;
17201;SDS011;8717;53.588;10.176;2022-08-03T15:00:59;4.43;;;1.75;;
17201;SDS011;8717;53.588;10.176;2022-08-03T15:03:26;2.67;;;1.63;;
17201;SDS011;8717;53.588;10.176;2022-08-03T15:05:54;3.45;;;1.80;;
17201;SDS011;8717;53.588;10.176;2022-08-03T15:08:23;5.40;;;2.45;;
17201;SDS011;8717;53.588;10.176;2022-08-03T15:10:50;3.30;;;1.60;;
17201;SDS011;8717;53.588;10.176;2022-08-03T15:13:18;2.72;;;1.75;;